Portada
METAR-TAF:

METAR-TAF

Aeroports :

Karlstad, Suècia

latitud: 59-26-41N, longitud: 013-20-15E, altitud: 107 m

Observació

L'informe es va fer fa 15 minuts, a les 02:20 UTC
Vent 4 kt del Nord/Nord-Oest
Temperatura 6°C
Humitat 87%
Pressió 1029 hPa
Visibilitat 10 km o més

METAR: ESOK 280220Z AUTO 34004KT 9999 NCD 06/04 Q1029

Hora: 04:35 (02:35 UTC)

Pronòstic

L'informe es va fer fa 15 hores i 5 minuts, a les 11:30 UTC
Pronòstic vàlid del 27 a les 12 UTC al 27 a les 15 UTC
Vent 10 kt del Nord-Oest
Visibilitat 10 km o més
sense núvols per sota de 1500 mi sense presència de cumulonimbus.
Probabilitat 40%
l' 27 a les 13 UTC al 27 a les 15 UTC
Cel ennuvolat a una alçada de 4000 ft, Cumulonimbus.

TAF: ESOK 271130Z 2712/2715 32010KT CAVOK PROB40 2713/2715 BKN040CB

Observacions i pronòstics meteorològics de més de 4000 aeroports (METAR i TAF).

Les estacions disponibles són els punts grocs i vermells al mapa.

Posi el ratolí al punt desitjat per veure el nom de l'estació.

Feu clic per veure les observacions i els pronòstics meteorològics.

Per canviar el mapa: feu clic els botons verds amb una creu de color negre per apropar; al botó verd amb un guió per allunyar la imatge; o en les fletxes verdes per a mapes adjacents.


METAR-TAF: